Time;durP1;ratioP1;P1;durP2;ratioP2;P2;SDS_P1;SDS_P2;PMS_P1;PMS_P2;Temp;Humidity;BMP_temperature;BMP_pressure;BME280_temperature;BME280_humidity;BME280_pressure;Samples;Min_cycle;Max_cycle;Signal;HPM_P1;HPM_P2
2021/10/11 00:00:37;;;;;;;56.80;41.23;;;11.40;99.90;;;;;;5021074;28;20244;-38
2021/10/11 00:03:03;;;;;;;57.60;41.27;;;11.40;99.90;;;;;;5024656;28;20190;-39
2021/10/11 00:05:29;;;;;;;49.77;37.03;;;11.40;99.90;;;;;;5025646;28;20213;-38
2021/10/11 00:07:54;;;;;;;53.63;38.83;;;11.30;99.90;;;;;;5025703;28;20186;-38
2021/10/11 00:10:21;;;;;;;51.03;35.87;;;11.20;99.90;;;;;;5025610;28;20187;-38
2021/10/11 00:12:52;;;;;;;53.83;38.70;;;11.20;99.90;;;;;;5024191;28;20653;-40
2021/10/11 00:15:19;;;;;;;54.10;39.80;;;11.20;99.90;;;;;;5016147;28;20421;-38
2021/10/11 00:17:46;;;;;;;58.80;41.77;;;11.20;99.90;;;;;;5025120;28;20417;-39
2021/10/11 00:20:12;;;;;;;60.27;42.27;;;11.30;99.90;;;;;;5025500;28;20616;-38
2021/10/11 00:22:38;;;;;;;60.03;41.77;;;11.20;99.90;;;;;;5026169;28;20431;-38
2021/10/11 00:25:04;;;;;;;58.47;42.60;;;11.40;99.90;;;;;;5043131;28;20424;-38
2021/10/11 00:27:31;;;;;;;59.73;43.67;;;11.30;99.90;;;;;;5044693;28;20428;-38
2021/10/11 00:29:58;;;;;;;66.20;45.80;;;11.60;99.90;;;;;;5017282;28;20773;-39
2021/10/11 00:32:23;;;;;;;60.60;42.40;;;11.60;99.90;;;;;;5023474;28;20769;-39
2021/10/11 00:34:49;;;;;;;62.43;44.00;;;11.50;99.90;;;;;;5024168;28;20425;-38
2021/10/11 00:37:15;;;;;;;65.00;46.20;;;11.50;99.90;;;;;;5026373;28;20263;-39
2021/10/11 00:39:41;;;;;;;63.30;43.47;;;11.60;99.90;;;;;;5028311;28;20193;-38
2021/10/11 00:42:06;;;;;;;64.33;47.17;;;11.60;99.90;;;;;;5028895;28;20198;-39
2021/10/11 00:44:32;;;;;;;70.90;46.43;;;11.70;99.90;;;;;;5018264;28;20676;-40
2021/10/11 00:46:58;;;;;;;67.87;47.80;;;11.80;99.90;;;;;;5026899;28;20519;-38
2021/10/11 00:49:23;;;;;;;70.27;48.80;;;11.90;99.90;;;;;;5028393;28;20195;-38
2021/10/11 00:51:49;;;;;;;67.60;45.77;;;11.90;99.90;;;;;;5028518;28;20187;-39
2021/10/11 00:54:15;;;;;;;69.63;47.40;;;11.90;99.90;;;;;;5027278;28;20640;-38
2021/10/11 00:56:41;;;;;;;68.67;46.93;;;11.90;99.90;;;;;;5028836;28;20232;-39
2021/10/11 00:59:07;;;;;;;67.90;46.40;;;11.90;99.90;;;;;;5022487;28;20445;-39
2021/10/11 01:01:33;;;;;;;70.87;50.00;;;12.10;99.90;;;;;;5027439;28;20202;-39
2021/10/11 01:03:59;;;;;;;71.67;48.90;;;11.90;99.90;;;;;;5026505;28;20823;-38
2021/10/11 01:06:25;;;;;;;72.73;47.70;;;11.90;99.90;;;;;;5028166;28;20460;-39
2021/10/11 01:08:51;;;;;;;74.00;49.60;;;11.90;99.90;;;;;;5027891;28;20579;-38
2021/10/11 01:11:17;;;;;;;75.37;48.40;;;11.90;99.90;;;;;;5028064;28;20516;-39
2021/10/11 01:13:43;;;;;;;68.10;48.47;;;11.90;99.90;;;;;;5022617;28;20229;-39
2021/10/11 01:16:08;;;;;;;69.43;48.23;;;11.80;99.90;;;;;;5021053;28;20425;-39
2021/10/11 01:18:34;;;;;;;72.00;49.30;;;11.90;99.90;;;;;;5027001;28;20186;-39
2021/10/11 01:21:00;;;;;;;68.33;46.63;;;11.90;99.90;;;;;;5027803;28;20276;-38
2021/10/11 01:23:26;;;;;;;77.47;49.37;;;12.00;99.90;;;;;;5035828;28;20248;-38
2021/10/11 01:25:52;;;;;;;69.47;48.47;;;12.10;99.90;;;;;;5047427;28;20641;-39
2021/10/11 01:28:19;;;;;;;71.30;49.07;;;11.90;99.90;;;;;;5047949;28;20503;-39
2021/10/11 01:30:45;;;;;;;66.90;46.17;;;12.00;99.90;;;;;;5020666;28;20472;-38
2021/10/11 01:33:11;;;;;;;74.27;49.83;;;12.00;99.90;;;;;;5026931;28;20429;-38
2021/10/11 01:35:36;;;;;;;71.10;47.30;;;12.10;99.90;;;;;;5027585;28;20436;-39
2021/10/11 01:38:03;;;;;;;71.70;48.37;;;12.10;99.90;;;;;;5027179;28;20183;-39
2021/10/11 01:40:28;;;;;;;71.47;48.40;;;12.10;99.90;;;;;;5027945;28;20623;-39
2021/10/11 01:42:54;;;;;;;73.70;48.10;;;12.00;99.90;;;;;;5026831;28;20429;-39
2021/10/11 01:45:20;;;;;;;66.47;47.43;;;12.00;99.90;;;;;;5016241;28;20569;-39
2021/10/11 01:47:46;;;;;;;68.60;47.33;;;12.10;99.90;;;;;;5025445;28;20259;-39
2021/10/11 01:50:11;;;;;;;68.77;48.10;;;12.10;99.90;;;;;;5026600;28;20452;-39
2021/10/11 01:52:40;;;;;;;65.10;45.30;;;12.10;99.90;;;;;;5027312;28;20198;-39
2021/10/11 01:55:06;;;;;;;66.07;44.87;;;12.10;99.90;;;;;;5027211;28;20269;-39
2021/10/11 01:57:32;;;;;;;67.27;46.20;;;12.10;99.90;;;;;;5027039;28;20653;-39
2021/10/11 01:59:59;;;;;;;68.10;46.97;;;12.10;99.90;;;;;;5018092;28;20484;-39
2021/10/11 02:02:27;;;;;;;68.63;45.93;;;12.10;99.90;;;;;;5019195;28;20437;-39
2021/10/11 02:04:52;;;;;;;65.60;47.00;;;12.20;99.90;;;;;;5023531;28;20421;-39
2021/10/11 02:07:18;;;;;;;64.90;45.80;;;12.20;99.90;;;;;;5027478;28;20420;-38
2021/10/11 02:09:44;;;;;;;69.97;47.13;;;12.30;99.90;;;;;;5026829;28;20524;-39
2021/10/11 02:12:10;;;;;;;66.70;46.37;;;12.30;99.90;;;;;;5027182;28;20553;-39
2021/10/11 02:14:35;;;;;;;66.30;47.40;;;12.30;99.90;;;;;;5017778;28;20847;-39
2021/10/11 02:17:01;;;;;;;69.17;46.23;;;12.30;99.90;;;;;;5022190;28;20284;-39
2021/10/11 02:19:26;;;;;;;70.17;47.60;;;12.30;99.90;;;;;;5026535;28;20190;-38
2021/10/11 02:21:52;;;;;;;65.90;46.50;;;12.30;99.90;;;;;;5032040;28;20196;-38
2021/10/11 02:24:18;;;;;;;70.50;47.70;;;12.30;99.90;;;;;;5040847;28;20299;-38
2021/10/11 02:26:43;;;;;;;69.20;47.20;;;12.20;99.90;;;;;;5040030;28;20221;-38
2021/10/11 02:29:09;;;;;;;65.20;45.67;;;12.30;99.90;;;;;;5023032;28;20197;-39
2021/10/11 02:31:35;;;;;;;73.47;48.17;;;12.30;99.90;;;;;;5019079;28;20370;-39
2021/10/11 02:34:01;;;;;;;68.43;47.83;;;12.30;99.90;;;;;;5025568;28;20182;-40
2021/10/11 02:36:26;;;;;;;63.27;44.83;;;12.30;99.90;;;;;;5026933;28;20229;-39
2021/10/11 02:38:52;;;;;;;73.57;47.50;;;12.30;99.90;;;;;;5026772;28;20209;-39
2021/10/11 02:41:18;;;;;;;62.23;45.40;;;12.30;99.90;;;;;;5026363;28;20186;-39
2021/10/11 02:43:44;;;;;;;75.43;49.07;;;12.30;99.90;;;;;;5026065;28;20264;-40
2021/10/11 02:46:09;;;;;;;71.07;46.73;;;12.20;99.90;;;;;;5015701;28;20583;-39
2021/10/11 02:48:35;;;;;;;70.90;47.37;;;12.30;99.90;;;;;;5004572;28;20525;-38
2021/10/11 02:51:01;;;;;;;75.10;50.03;;;12.20;99.90;;;;;;5024170;28;20213;-39
2021/10/11 02:53:27;;;;;;;78.90;47.77;;;12.20;99.90;;;;;;5025898;28;20568;-38
2021/10/11 02:55:52;;;;;;;68.00;47.80;;;12.10;99.90;;;;;;5025947;28;20194;-38
2021/10/11 02:58:18;;;;;;;73.53;48.10;;;12.20;99.90;;;;;;5025110;28;20201;-38
2021/10/11 03:00:44;;;;;;;69.00;47.00;;;12.20;99.90;;;;;;5016250;28;20285;-39
2021/10/11 03:03:09;;;;;;;71.27;47.73;;;12.10;99.90;;;;;;5025432;28;20183;-39
2021/10/11 03:05:35;;;;;;;70.43;46.60;;;12.10;99.90;;;;;;5026214;28;20308;-39
2021/10/11 03:08:01;;;;;;;67.10;46.23;;;12.10;99.90;;;;;;5026075;28;20186;-39
2021/10/11 03:10:26;;;;;;;67.60;46.37;;;12.10;99.90;;;;;;5025983;28;20190;-39
2021/10/11 03:12:52;;;;;;;62.33;44.93;;;12.20;99.90;;;;;;5025737;28;20367;-39
2021/10/11 03:15:18;;;;;;;67.40;46.50;;;12.30;99.90;;;;;;5017180;28;20581;-39
2021/10/11 03:17:43;;;;;;;63.57;44.63;;;12.10;99.90;;;;;;5018706;28;20261;-38
2021/10/11 03:20:09;;;;;;;62.47;44.60;;;12.10;99.90;;;;;;5029729;28;20209;-39
2021/10/11 03:22:35;;;;;;;61.30;44.73;;;12.10;99.90;;;;;;5045515;28;20473;-38
2021/10/11 03:25:01;;;;;;;58.57;42.47;;;12.10;99.90;;;;;;5044123;28;20427;-38
2021/10/11 03:27:26;;;;;;;57.00;42.83;;;12.10;99.90;;;;;;5045690;28;20185;-39
2021/10/11 03:29:52;;;;;;;56.37;41.53;;;12.10;99.90;;;;;;5035838;28;20199;-39
2021/10/11 03:32:18;;;;;;;55.57;41.20;;;12.00;99.90;;;;;;5017778;28;20193;-39
2021/10/11 03:34:43;;;;;;;56.37;38.47;;;11.90;99.90;;;;;;5024753;28;20257;-40
2021/10/11 03:37:09;;;;;;;52.03;35.90;;;11.80;99.90;;;;;;5025873;28;20191;-39
2021/10/11 03:39:35;;;;;;;49.47;37.27;;;12.00;99.90;;;;;;5025225;28;20776;-39
2021/10/11 03:42:00;;;;;;;47.07;34.10;;;12.00;99.90;;;;;;5025694;28;20186;-39
2021/10/11 03:44:26;;;;;;;43.90;31.17;;;11.90;99.90;;;;;;5024626;28;20349;-39
2021/10/11 03:46:52;;;;;;;43.93;31.47;;;12.10;99.90;;;;;;5016499;28;20241;-38
2021/10/11 03:49:17;;;;;;;41.40;29.87;;;12.00;99.90;;;;;;5024648;28;20356;-39
2021/10/11 03:51:43;;;;;;;39.43;29.20;;;12.00;99.90;;;;;;5025868;28;20618;-39
2021/10/11 03:54:08;;;;;;;40.70;30.53;;;12.00;99.90;;;;;;5024530;28;20216;-39
2021/10/11 03:56:34;;;;;;;39.60;28.10;;;12.10;99.90;;;;;;5025671;28;20637;-39
2021/10/11 03:59:00;;;;;;;37.37;27.27;;;12.00;99.90;;;;;;5025496;28;20186;-39
2021/10/11 04:01:25;;;;;;;37.90;27.47;;;12.00;99.90;;;;;;5015025;28;20190;-39
2021/10/11 04:03:53;;;;;;;40.57;29.67;;;12.10;99.90;;;;;;5024452;28;20190;-39
2021/10/11 04:06:18;;;;;;;37.57;28.03;;;12.10;99.90;;;;;;5025611;28;20206;-39
2021/10/11 04:08:46;;;;;;;37.03;27.10;;;12.20;99.90;;;;;;5025595;28;20425;-41
2021/10/11 04:13:41;;;;;;;31.47;24.60;;;12.20;99.90;;;;;;5028458;28;20732;-38
2021/10/11 04:16:07;;;;;;;34.30;24.20;;;12.20;99.90;;;;;;5024020;28;20873;-39
2021/10/11 04:18:34;;;;;;;39.90;27.50;;;12.20;99.90;;;;;;5028919;28;20417;-38
2021/10/11 04:21:00;;;;;;;47.00;29.20;;;12.20;99.90;;;;;;5028714;28;20429;-39
2021/10/11 04:23:26;;;;;;;43.53;28.43;;;12.10;99.90;;;;;;5026795;28;20420;-39
2021/10/11 04:25:52;;;;;;;42.57;28.40;;;12.20;99.90;;;;;;5040651;28;20517;-39
2021/10/11 04:28:18;;;;;;;41.07;28.73;;;12.20;99.90;;;;;;5047835;28;20623;-40
2021/10/11 04:30:44;;;;;;;35.80;25.93;;;12.20;99.90;;;;;;5031290;28;20179;-40
2021/10/11 04:33:10;;;;;;;38.60;27.27;;;12.20;99.90;;;;;;5026746;28;20583;-39
2021/10/11 04:35:36;;;;;;;38.37;28.13;;;12.20;99.90;;;;;;5029047;28;20568;-39
2021/10/11 04:38:02;;;;;;;43.33;29.43;;;12.20;99.90;;;;;;5028947;28;20895;-39
2021/10/11 04:40:28;;;;;;;40.63;28.77;;;12.20;99.90;;;;;;5029168;28;20679;-39
2021/10/11 04:42:53;;;;;;;41.13;26.67;;;12.10;99.90;;;;;;5028034;28;20605;-40
2021/10/11 04:45:20;;;;;;;45.33;29.40;;;12.20;99.90;;;;;;5025287;28;20219;-39
2021/10/11 04:47:46;;;;;;;39.07;26.47;;;12.30;99.90;;;;;;5023199;28;20179;-39
2021/10/11 04:50:12;;;;;;;41.67;27.40;;;12.30;99.90;;;;;;5028499;28;20425;-40
2021/10/11 04:52:37;;;;;;;37.93;28.27;;;12.40;99.90;;;;;;5028280;28;20178;-39
2021/10/11 04:55:03;;;;;;;41.10;28.63;;;12.40;99.90;;;;;;5039126;28;20192;-40
2021/10/11 04:57:29;;;;;;;38.57;27.13;;;12.40;99.90;;;;;;5048071;28;20202;-39
2021/10/11 04:59:55;;;;;;;39.40;26.33;;;12.40;99.90;;;;;;5048344;28;20427;-39
2021/10/11 05:02:21;;;;;;;39.67;25.80;;;12.40;99.90;;;;;;5018518;28;20212;-39
2021/10/11 05:04:46;;;;;;;44.20;27.67;;;12.40;99.90;;;;;;5027561;28;20192;-41
2021/10/11 05:07:12;;;;;;;39.47;26.43;;;12.40;99.90;;;;;;5028161;28;20210;-39
2021/10/11 05:09:38;;;;;;;40.77;27.80;;;12.40;99.90;;;;;;5028234;28;20257;-39
2021/10/11 05:12:04;;;;;;;36.53;25.97;;;12.40;99.90;;;;;;5028335;28;20308;-40
2021/10/11 05:14:29;;;;;;;37.53;25.13;;;12.50;99.90;;;;;;5027339;28;20539;-38
2021/10/11 05:16:55;;;;;;;37.83;26.03;;;12.50;99.90;;;;;;5017490;28;20437;-39
2021/10/11 05:19:28;;;;;;;33.37;24.40;;;12.50;99.90;;;;;;5027939;28;20693;-39
2021/10/11 05:21:54;;;;;;;35.40;25.23;;;12.50;99.90;;;;;;5046637;28;20177;-39
2021/10/11 05:24:23;;;;;;;32.83;23.70;;;12.50;99.90;;;;;;5039600;28;20433;-38
2021/10/11 05:26:51;;;;;;;35.40;23.53;;;12.50;99.90;;;;;;5046827;28;20833;-39
2021/10/11 05:29:17;;;;;;;33.47;22.40;;;12.50;99.90;;;;;;5047066;28;20452;-39
2021/10/11 05:31:42;;;;;;;31.00;21.43;;;12.50;99.90;;;;;;5022811;28;20516;-39
2021/10/11 05:34:08;;;;;;;30.47;20.20;;;12.50;99.90;;;;;;5023008;28;20488;-39
2021/10/11 05:36:34;;;;;;;33.00;23.00;;;12.50;99.90;;;;;;5027892;28;20952;-39
2021/10/11 05:39:00;;;;;;;31.17;21.67;;;12.40;99.90;;;;;;5027460;28;20910;-39
2021/10/11 05:41:25;;;;;;;29.93;20.03;;;12.40;99.90;;;;;;5027503;28;20194;-39
2021/10/11 05:43:51;;;;;;;31.17;21.67;;;12.40;99.90;;;;;;5025501;28;20191;-39
2021/10/11 05:46:17;;;;;;;29.47;20.33;;;12.50;99.90;;;;;;5018639;28;20230;-38
2021/10/11 05:48:42;;;;;;;25.03;18.57;;;12.40;99.90;;;;;;5021438;28;20179;-38
2021/10/11 05:51:08;;;;;;;25.93;18.73;;;12.50;99.90;;;;;;5026952;28;20198;-39
2021/10/11 05:53:34;;;;;;;27.40;18.50;;;12.50;99.90;;;;;;5038733;28;20187;-38
2021/10/11 05:55:59;;;;;;;26.30;19.77;;;12.50;99.90;;;;;;5035221;28;20205;-38
2021/10/11 05:58:25;;;;;;;26.13;17.60;;;12.50;99.90;;;;;;5047159;28;20410;-38
2021/10/11 06:00:50;;;;;;;23.80;17.37;;;12.50;99.90;;;;;;5041116;28;20224;-39
2021/10/11 06:03:16;;;;;;;24.10;16.37;;;12.50;99.90;;;;;;5022125;28;20191;-39
2021/10/11 06:05:42;;;;;;;24.00;17.10;;;12.50;99.90;;;;;;5027170;28;20210;-39
2021/10/11 06:08:07;;;;;;;22.40;16.47;;;12.40;99.90;;;;;;5027750;28;20669;-39
2021/10/11 06:10:33;;;;;;;21.73;16.50;;;12.40;99.90;;;;;;5026856;28;20190;-39
2021/10/11 06:12:59;;;;;;;24.27;16.67;;;12.30;99.90;;;;;;5026355;28;20185;-38
2021/10/11 06:15:25;;;;;;;21.13;15.17;;;12.30;99.90;;;;;;5027235;28;20193;-39
2021/10/11 06:17:50;;;;;;;24.30;16.13;;;12.10;99.90;;;;;;5016252;28;20190;-39
2021/10/11 06:20:16;;;;;;;17.73;14.53;;;12.30;99.90;;;;;;5026677;28;20290;-39
2021/10/11 06:22:42;;;;;;;15.57;11.97;;;12.30;99.90;;;;;;5026667;28;20514;-39
2021/10/11 06:25:08;;;;;;;18.27;11.87;;;12.30;99.90;;;;;;5026285;28;20201;-39
2021/10/11 06:27:34;;;;;;;21.00;12.10;;;12.40;99.90;;;;;;5026241;28;20179;-38
2021/10/11 06:30:00;;;;;;;16.97;11.80;;;12.40;99.90;;;;;;5026705;28;20187;-39
2021/10/11 06:32:25;;;;;;;19.93;11.13;;;12.40;99.90;;;;;;5013915;28;20525;-39
2021/10/11 06:34:51;;;;;;;17.73;10.73;;;12.40;99.90;;;;;;5025606;28;20533;-39
2021/10/11 06:37:17;;;;;;;15.10;9.97;;;12.30;99.90;;;;;;5026465;28;20193;-39
2021/10/11 06:39:42;;;;;;;14.30;9.60;;;12.40;99.90;;;;;;5026599;28;20194;-38
2021/10/11 06:42:08;;;;;;;11.97;8.63;;;12.40;99.90;;;;;;5026326;28;20213;-41
2021/10/11 06:44:35;;;;;;;14.40;9.27;;;12.50;99.90;;;;;;5025744;28;20197;-41
2021/10/11 06:47:00;;;;;;;13.80;9.10;;;12.50;99.90;;;;;;5016235;28;20215;-41
2021/10/11 06:49:26;;;;;;;11.93;8.03;;;12.40;99.90;;;;;;5026147;28;20459;-39
2021/10/11 06:51:52;;;;;;;14.13;8.90;;;12.40;99.90;;;;;;5026331;28;20693;-39
2021/10/11 06:54:17;;;;;;;18.17;9.73;;;12.40;99.90;;;;;;5025448;28;20182;-39
2021/10/11 06:56:43;;;;;;;15.53;10.07;;;12.40;99.90;;;;;;5025840;28;20211;-39
2021/10/11 06:59:08;;;;;;;16.00;10.03;;;12.40;99.90;;;;;;5025793;28;20201;-39
2021/10/11 07:01:34;;;;;;;15.30;9.17;;;12.40;99.90;;;;;;5024863;28;20364;-40
2021/10/11 07:04:00;;;;;;;17.40;9.50;;;12.40;99.90;;;;;;5023693;28;20731;-39
2021/10/11 07:06:26;;;;;;;14.57;9.13;;;12.50;99.90;;;;;;5025935;28;20820;-39
2021/10/11 07:08:53;;;;;;;11.03;8.50;;;12.50;99.90;;;;;;5025687;28;20429;-40
2021/10/11 07:11:19;;;;;;;15.27;7.60;;;12.50;99.90;;;;;;5026170;28;20196;-38
2021/10/11 07:13:44;;;;;;;13.57;7.33;;;12.50;99.90;;;;;;5025278;28;20413;-40
2021/10/11 07:16:10;;;;;;;13.97;7.50;;;12.50;99.90;;;;;;5022689;28;20191;-39
2021/10/11 07:18:37;;;;;;;16.60;6.87;;;12.50;99.90;;;;;;5018246;28;20444;-39
2021/10/11 07:21:06;;;;;;;12.50;6.53;;;12.50;99.90;;;;;;5018941;28;20436;-39
2021/10/11 07:23:33;;;;;;;12.53;6.17;;;12.60;99.90;;;;;;5014860;28;20428;-39
2021/10/11 07:26:00;;;;;;;11.13;7.30;;;12.70;99.90;;;;;;5021477;28;20552;-40
2021/10/11 07:28:27;;;;;;;12.93;6.73;;;12.70;99.90;;;;;;5025030;28;20472;-38
2021/10/11 07:30:53;;;;;;;11.00;6.63;;;12.80;99.90;;;;;;5018818;28;20515;-39
2021/10/11 07:33:20;;;;;;;10.90;6.33;;;12.90;99.90;;;;;;5018620;28;20979;-39
2021/10/11 07:35:45;;;;;;;9.80;7.13;;;13.00;99.90;;;;;;5025294;28;20467;-39
2021/10/11 07:38:11;;;;;;;9.53;6.37;;;13.00;99.90;;;;;;5025803;28;20815;-39
2021/10/11 07:40:37;;;;;;;10.93;7.10;;;13.10;99.90;;;;;;5023148;28;20447;-39
2021/10/11 07:43:03;;;;;;;15.50;6.30;;;13.00;99.90;;;;;;5025285;28;20386;-39
2021/10/11 07:45:29;;;;;;;12.03;6.63;;;13.00;99.90;;;;;;5024119;28;20229;-39
2021/10/11 07:47:54;;;;;;;10.27;6.60;;;13.00;99.90;;;;;;5018140;28;20442;-40
2021/10/11 07:50:21;;;;;;;13.40;7.70;;;13.00;99.90;;;;;;5026883;28;20906;-39
2021/10/11 07:52:46;;;;;;;12.53;7.13;;;13.00;99.90;;;;;;5029052;28;20228;-39
2021/10/11 07:55:12;;;;;;;8.73;5.97;;;13.00;99.90;;;;;;5029044;28;20409;-39
2021/10/11 07:57:39;;;;;;;13.63;6.60;;;13.10;99.90;;;;;;5030522;28;20209;-38
2021/10/11 08:00:07;;;;;;;14.37;6.83;;;13.10;99.90;;;;;;5029555;28;20185;-38
2021/10/11 08:02:33;;;;;;;9.07;6.00;;;13.10;99.90;;;;;;5024734;28;20455;-39
2021/10/11 08:04:58;;;;;;;12.63;8.53;;;13.10;99.90;;;;;;5021179;28;20432;-39
2021/10/11 08:07:24;;;;;;;11.40;6.50;;;13.10;99.90;;;;;;5023847;28;20218;-38
2021/10/11 08:09:50;;;;;;;12.60;6.80;;;13.20;99.90;;;;;;5029641;28;20240;-39
2021/10/11 08:12:15;;;;;;;12.13;6.80;;;13.10;99.90;;;;;;5029528;28;20712;-38
2021/10/11 08:14:41;;;;;;;12.03;6.60;;;13.10;99.90;;;;;;5027545;28;20277;-39
2021/10/11 08:17:07;;;;;;;14.63;6.77;;;13.20;99.90;;;;;;5028982;28;20551;-39
2021/10/11 08:19:33;;;;;;;10.07;6.53;;;13.10;99.90;;;;;;5026787;28;20252;-40
2021/10/11 08:21:58;;;;;;;9.90;6.87;;;13.10;99.90;;;;;;5028796;28;20570;-39
2021/10/11 08:24:24;;;;;;;11.90;5.90;;;13.10;99.90;;;;;;5028648;28;20194;-38
2021/10/11 08:26:50;;;;;;;9.67;6.13;;;13.00;99.90;;;;;;5028850;28;20662;-39
2021/10/11 08:29:15;;;;;;;15.90;7.70;;;12.90;99.90;;;;;;5029182;28;20199;-39
2021/10/11 08:31:41;;;;;;;8.70;5.83;;;13.00;99.90;;;;;;5048236;28;20186;-39
2021/10/11 08:34:07;;;;;;;11.87;6.97;;;13.00;99.90;;;;;;5023696;28;20179;-39
2021/10/11 08:36:32;;;;;;;11.80;6.33;;;13.00;99.90;;;;;;5026248;28;20194;-39
2021/10/11 08:38:58;;;;;;;14.17;6.33;;;13.00;99.90;;;;;;5027778;28;20194;-39
2021/10/11 08:41:25;;;;;;;11.20;6.00;;;13.10;99.90;;;;;;5027866;28;20187;-39
2021/10/11 08:43:50;;;;;;;11.53;6.67;;;13.10;99.90;;;;;;5026067;28;20194;-39
2021/10/11 08:46:16;;;;;;;14.97;6.00;;;13.10;99.90;;;;;;5026706;28;20472;-40
2021/10/11 08:48:42;;;;;;;10.33;6.10;;;13.00;99.90;;;;;;5018368;28;20280;-38
2021/10/11 08:51:09;;;;;;;14.70;5.70;;;13.10;99.90;;;;;;5028000;28;20197;-38
2021/10/11 08:53:36;;;;;;;13.37;6.10;;;13.10;99.90;;;;;;5027965;28;20228;-40
2021/10/11 08:56:02;;;;;;;10.67;6.30;;;13.10;99.90;;;;;;5028372;28;20939;-38
2021/10/11 08:58:28;;;;;;;11.47;6.10;;;13.10;99.90;;;;;;5027328;28;20417;-39
2021/10/11 09:01:05;;;;;;;8.17;5.70;;;13.10;99.90;;;;;;5033925;28;20430;-39
2021/10/11 09:03:31;;;;;;;8.73;5.30;;;13.20;99.90;;;;;;5019802;28;20437;-39
2021/10/11 09:06:08;;;;;;;9.47;5.73;;;13.10;99.90;;;;;;5027895;28;20947;-39
2021/10/11 09:08:35;;;;;;;13.07;4.97;;;13.10;99.90;;;;;;5028099;28;20316;-39
2021/10/11 09:11:04;;;;;;;10.03;6.17;;;13.00;99.90;;;;;;5028545;28;20417;-39
2021/10/11 09:13:43;;;;;;;12.60;5.43;;;13.00;99.90;;;;;;5027597;28;20425;-39
2021/10/11 09:19:16;;;;;;;7.93;4.53;;;13.10;99.90;;;;;;5019216;28;20507;-39
2021/10/11 09:21:42;;;;;;;9.93;5.20;;;13.00;99.90;;;;;;5029891;28;20461;-40
2021/10/11 09:24:18;;;;;;;9.40;5.37;;;13.00;99.90;;;;;;5027409;28;21063;-39
2021/10/11 09:26:56;;;;;;;9.00;4.33;;;13.10;99.90;;;;;;5027480;28;20680;-38
2021/10/11 09:29:28;;;;;;;6.30;3.90;;;13.10;99.90;;;;;;5028252;28;20432;-39
2021/10/11 09:31:57;;;;;;;6.67;3.50;;;13.10;99.90;;;;;;5028256;28;20417;-39
2021/10/11 09:34:22;;;;;;;9.83;3.50;;;13.00;99.90;;;;;;5014508;28;20444;-39
2021/10/11 09:37:05;;;;;;;5.70;3.93;;;13.10;99.90;;;;;;5028063;28;20433;-38
2021/10/11 09:39:36;;;;;;;10.27;3.90;;;13.00;99.90;;;;;;5027894;28;20569;-39
2021/10/11 09:42:04;;;;;;;8.30;3.40;;;13.00;99.90;;;;;;5028066;28;20849;-39
2021/10/11 09:44:29;;;;;;;8.27;4.40;;;12.90;99.90;;;;;;5027122;28;20512;-39
2021/10/11 09:47:09;;;;;;;10.03;3.60;;;12.90;99.90;;;;;;5026485;28;20551;-39
2021/10/11 09:49:35;;;;;;;5.93;3.33;;;12.90;99.90;;;;;;5019665;28;20190;-41
2021/10/11 09:52:01;;;;;;;7.87;3.20;;;13.00;99.90;;;;;;5027279;28;20499;-40
2021/10/11 09:54:27;;;;;;;5.37;3.30;;;13.00;99.90;;;;;;5027098;28;20426;-40
2021/10/11 09:56:53;;;;;;;3.87;2.97;;;12.90;99.90;;;;;;5027187;28;20953;-39
2021/10/11 09:59:19;;;;;;;12.00;3.87;;;12.90;99.90;;;;;;5027285;28;20194;-39
2021/10/11 10:01:47;;;;;;;5.20;3.70;;;13.00;99.90;;;;;;5040127;28;21052;-39
2021/10/11 10:04:22;;;;;;;7.97;4.03;;;13.10;99.90;;;;;;5010118;28;20539;-39
2021/10/11 10:06:52;;;;;;;5.70;3.10;;;13.20;99.90;;;;;;5023871;28;20464;-38
2021/10/11 10:09:19;;;;;;;6.47;3.43;;;13.40;99.90;;;;;;5025333;28;20517;-39
2021/10/11 10:11:45;;;;;;;7.30;2.90;;;13.60;99.90;;;;;;5026769;28;20432;-39
2021/10/11 10:14:21;;;;;;;6.77;3.20;;;13.70;99.90;;;;;;5027113;28;20509;-39
2021/10/11 10:16:52;;;;;;;10.03;3.47;;;13.80;99.90;;;;;;5026564;28;20654;-39
2021/10/11 10:19:18;;;;;;;8.50;3.10;;;13.80;99.90;;;;;;5014909;28;20978;-39
2021/10/11 10:21:44;;;;;;;6.40;2.47;;;13.80;99.90;;;;;;5028583;28;20437;-39
2021/10/11 10:24:21;;;;;;;4.70;2.40;;;13.80;99.90;;;;;;5026241;28;20943;-39
2021/10/11 10:26:46;;;;;;;4.40;2.57;;;13.90;99.90;;;;;;5026302;28;20994;-40
2021/10/11 10:29:20;;;;;;;5.90;2.27;;;13.80;99.90;;;;;;5026113;28;20417;-39
2021/10/11 10:31:46;;;;;;;5.60;2.77;;;13.90;99.90;;;;;;5013718;28;20247;-39
2021/10/11 10:34:14;;;;;;;4.60;2.30;;;13.90;99.90;;;;;;5014963;28;20515;-39
2021/10/11 10:36:43;;;;;;;8.20;2.63;;;13.90;99.90;;;;;;5019716;28;20544;-39
2021/10/11 10:39:11;;;;;;;4.03;2.30;;;14.00;99.90;;;;;;5026353;28;20425;-39
2021/10/11 10:41:38;;;;;;;5.07;2.03;;;14.10;99.90;;;;;;5026305;28;20959;-39
2021/10/11 10:44:19;;;;;;;6.10;2.57;;;14.20;99.90;;;;;;5025764;28;20487;-39
2021/10/11 10:47:00;;;;;;;4.00;1.97;;;14.30;99.90;;;;;;5025660;28;20563;-38
2021/10/11 10:49:39;;;;;;;7.53;2.37;;;14.40;99.90;;;;;;5019960;28;20432;-39
2021/10/11 10:52:14;;;;;;;5.90;2.73;;;14.50;99.90;;;;;;5026002;28;20911;-40
2021/10/11 10:54:45;;;;;;;6.60;2.70;;;14.70;99.90;;;;;;5025709;28;20796;-39
2021/10/11 10:57:17;;;;;;;16.17;3.90;;;14.80;99.90;;;;;;5026184;28;20448;-39
2021/10/11 10:59:54;;;;;;;5.80;2.13;;;14.90;99.90;;;;;;5026081;28;20430;-39
2021/10/11 11:02:20;;;;;;;10.00;2.33;;;15.00;99.90;;;;;;5026371;28;20483;-38
2021/10/11 11:04:57;;;;;;;7.13;2.63;;;15.10;99.90;;;;;;5013741;28;20444;-39
2021/10/11 11:07:27;;;;;;;7.93;2.50;;;15.20;99.90;;;;;;5025677;28;20511;-39
2021/10/11 11:09:52;;;;;;;6.20;2.57;;;15.10;99.90;;;;;;5025864;28;20426;-40
2021/10/11 11:12:28;;;;;;;6.53;2.60;;;15.10;99.90;;;;;;5026647;28;20786;-39
2021/10/11 11:14:54;;;;;;;9.40;2.93;;;15.00;99.90;;;;;;5040019;28;20190;-39
2021/10/11 11:17:31;;;;;;;8.93;4.03;;;14.90;99.90;;;;;;5045950;28;20439;-38
2021/10/11 11:19:57;;;;;;;8.27;3.60;;;14.90;99.90;;;;;;5022440;28;20335;-39
2021/10/11 11:22:33;;;;;;;7.27;3.70;;;15.10;99.90;;;;;;5025983;28;20532;-38
2021/10/11 11:25:01;;;;;;;7.00;3.57;;;15.30;99.90;;;;;;5025372;28;20205;-39
2021/10/11 11:27:37;;;;;;;7.83;3.40;;;15.60;99.90;;;;;;5025563;28;20843;-39
2021/10/11 11:30:10;;;;;;;11.50;4.07;;;15.70;99.90;;;;;;5025804;28;20433;-41
2021/10/11 11:33:02;;;;;;;9.00;3.50;;;15.80;99.90;;;;;;5026094;28;20884;-41
2021/10/11 11:35:30;;;;;;;6.83;3.30;;;15.90;99.90;;;;;;5008936;28;20441;-40
2021/10/11 11:38:02;;;;;;;7.93;3.50;;;15.80;99.90;;;;;;5023163;28;20481;-39
2021/10/11 11:40:30;;;;;;;8.10;3.47;;;15.60;99.90;;;;;;5024104;28;20449;-39
2021/10/11 11:42:57;;;;;;;6.10;3.00;;;15.40;99.90;;;;;;5023849;28;20795;-39
2021/10/11 11:45:34;;;;;;;10.87;3.33;;;15.40;99.90;;;;;;5024095;28;20428;-40
2021/10/11 11:48:06;;;;;;;5.93;2.90;;;15.30;99.90;;;;;;5024607;28;21062;-39
2021/10/11 11:50:31;;;;;;;5.40;2.97;;;15.30;99.90;;;;;;5018636;28;20835;-39
2021/10/11 11:53:14;;;;;;;10.07;2.93;;;15.20;99.90;;;;;;5019577;28;20429;-39
2021/10/11 11:55:44;;;;;;;6.33;2.50;;;15.20;99.90;;;;;;5021719;28;20544;-39
2021/10/11 11:58:13;;;;;;;9.07;3.00;;;15.10;99.90;;;;;;5025746;28;20444;-39
2021/10/11 12:00:43;;;;;;;7.40;2.40;;;15.10;99.90;;;;;;5025438;28;20421;-39
2021/10/11 12:03:10;;;;;;;5.20;2.13;;;15.10;99.90;;;;;;5024912;28;20848;-38
2021/10/11 12:05:37;;;;;;;8.07;2.50;;;15.10;99.90;;;;;;5020541;28;20469;-38
2021/10/11 12:08:03;;;;;;;5.10;1.93;;;15.10;99.90;;;;;;5007700;28;20916;-38
2021/10/11 12:10:29;;;;;;;6.83;2.10;;;15.40;99.90;;;;;;5030361;28;20431;-39
2021/10/11 12:13:03;;;;;;;5.67;2.10;;;15.60;99.90;;;;;;5044573;28;20473;-42
2021/10/11 12:15:30;;;;;;;7.90;1.80;;;15.90;99.90;;;;;;5032491;28;20909;-40
2021/10/11 12:18:08;;;;;;;10.87;2.97;;;16.00;99.90;;;;;;5045154;28;20850;-39
2021/10/11 12:20:52;;;;;;;7.33;2.30;;;15.90;99.90;;;;;;5030115;28;20428;-39
2021/10/11 12:23:19;;;;;;;3.23;2.40;;;15.70;99.90;;;;;;5021760;28;20496;-39
2021/10/11 12:25:46;;;;;;;6.23;2.20;;;15.40;99.90;;;;;;5025036;28;20536;-39
2021/10/11 12:28:15;;;;;;;7.13;1.90;;;15.30;99.90;;;;;;5025167;28;20857;-39
2021/10/11 12:30:47;;;;;;;6.77;1.70;;;15.20;99.90;;;;;;5025383;28;20511;-39
2021/10/11 12:33:16;;;;;;;2.20;1.83;;;15.10;99.90;;;;;;5025865;28;20508;-40
2021/10/11 12:35:43;;;;;;;6.30;1.97;;;15.00;99.90;;;;;;5025410;28;20517;-39
2021/10/11 12:38:11;;;;;;;9.37;2.43;;;15.00;99.90;;;;;;5024854;28;20500;-39